Wichita Mid Continent Airport
KICT : now visible

Airfield :











YOU CAN JOIN US ON...

 
LOGIN :

Register | Disclaimer

   EN    FR    IT 

 









Legend :    VFR   Marginal VFR   IFR   Intensive IFR   Very Intensive IFR
Visi :
Ceiling :
>= 8 km
>= 3000ft
5 to 8 km
1000 to 3000 ft
1500m to 5 km
500 to 1000 ft
800 to 1500m
200 to 500 ft
< 800m
< 200 ft
Symbols :   Thunderstorms  Fog  Heavy snow  Heavy precipitations  Wind > 20 kt







- Airport Elevation : 1333 ft
- IATA code : ICT


KICT - Wichita Mid Continent

CURRENT METAR :
  • 311527Z 05004KT 8SM R01L/6000VP6000FT -RA SCT011 OVC035 23/20 A3015 RMK AO2 RAB22 P0000 T02280200

EXPIRED METARs :
  • 311453Z COR 01005KT 10SM FEW010 BKN035 OVC050 23/20 A3014 RMK AO2 SLP193 OCNL LTGICCG DSNT SE CB DSNT N-NE-SE SHRA DSNT N-NE-SE AND SW MOVG SLO E 60000 T02330200 51009
  • 311353Z 02005KT 10SM FEW010 BKN037 BKN046 OVC130 23/20 A3013 RMK AO2 SLP191 CB DSNT NW-N-NE SHRA DSNT NW-N-NE MOVG SLO E T02280200
  • 311253Z COR 03005KT 10SM FEW010 SCT044 SCT080 BKN150 BKN220 22/20 A3012 RMK AO2 RAB1157E10 SLP186 CB DSNT SW-N-NE SHRA DSNT NW-N-NE MOVG SLO E P0000 T02220200

TAF KICT
Valid from the 31 at 15:00 until the 01 at 12:00 UTC


311523Z 3115/0112 03005KT P6SM VCSH SCT015 BKN035
TEMPO 3115/3117 3SM SHRA
FM010000 05005KT P6SM SCT015 BKN035
FM010400 04005KT P6SM OVC015
KZKC FIR / North America



MET'MAP, your aeronautical weather chart ! - Copyright ORBIFLY December 2007 - Disclaimer

ORBIFLY MET'MAP TEAM :

Programming & Development : Alexandra Zaïnal
Concept & Development : Baudouin d'Aumeries
Co-Development & Prog : Marc-Olivier Méhu
Technical & hardware support : Manuel Goepfert

Contact : metmap@orbifly.com




SOURCES & CREDITS :

   NOAA       Earth
Advisory